createdAt,value
2019-06-10T00:01:08.470Z,101260.05
2019-06-10T00:03:37.430Z,101243.97
2019-06-10T00:06:07.146Z,101252.16
2019-06-10T00:08:36.460Z,101254.02
2019-06-10T00:11:07.769Z,101245.48
2019-06-10T00:13:37.265Z,101231.48
2019-06-10T00:16:08.041Z,101209.25
2019-06-10T00:18:42.047Z,101209.25
2019-06-10T00:21:11.211Z,101208.34
2019-06-10T00:23:41.305Z,101208.34
2019-06-10T00:26:12.660Z,101215.32
2019-06-10T00:28:42.103Z,101212.23
2019-06-10T00:31:11.662Z,101214.78
2019-06-10T00:33:42.089Z,101210.33
2019-06-10T00:36:13.655Z,101207.73
2019-06-10T00:38:43.073Z,101203.45
2019-06-10T00:41:14.118Z,101196.97
2019-06-10T00:43:44.018Z,101192.36
2019-06-10T00:46:13.469Z,101179.02
2019-06-10T00:48:43.117Z,101181.20
2019-06-10T00:51:13.205Z,101189.36
2019-06-10T00:53:43.888Z,101179.63
2019-06-10T00:56:14.441Z,101175.31
2019-06-10T00:58:44.299Z,101175.00
2019-06-10T01:01:14.697Z,101174.28
2019-06-10T01:03:45.166Z,101172.73
2019-06-10T01:06:15.320Z,101167.05
2019-06-10T01:08:44.621Z,101157.84
2019-06-10T01:11:21.204Z,101157.14
2019-06-10T01:13:45.633Z,101149.13
2019-06-10T01:16:15.619Z,101151.98
2019-06-10T01:18:45.215Z,101146.70
2019-06-10T01:21:15.531Z,101144.78
2019-06-10T01:23:45.181Z,101144.08
2019-06-10T01:26:16.437Z,101139.44
2019-06-10T01:28:46.129Z,101135.78
2019-06-10T01:31:20.653Z,101133.88
2019-06-10T01:33:47.144Z,101131.31
2019-06-10T01:36:16.646Z,101130.95
2019-06-10T01:38:46.226Z,101126.67
2019-06-10T01:41:16.688Z,101119.16
2019-06-10T01:43:47.170Z,101122.72
2019-06-10T01:46:17.521Z,101112.51
2019-06-10T01:48:48.490Z,101116.08
2019-06-10T01:51:21.109Z,101105.70
2019-06-10T01:53:51.339Z,101104.34
2019-06-10T01:56:21.605Z,101095.81
2019-06-10T01:58:51.643Z,101101.26
2019-06-10T02:01:26.466Z,101099.54
2019-06-10T02:03:55.843Z,101092.21
2019-06-10T02:06:25.993Z,101090.72
2019-06-10T02:08:57.057Z,101088.34
2019-06-10T02:11:26.409Z,101080.66
2019-06-10T02:13:55.782Z,101077.94
2019-06-10T02:16:25.194Z,101080.30
2019-06-10T02:19:00.437Z,101080.95
2019-06-10T02:21:26.198Z,101079.95
2019-06-10T02:23:55.827Z,101069.58
2019-06-10T02:26:25.265Z,101068.02
2019-06-10T02:28:54.888Z,101062.68
2019-06-10T02:31:30.363Z,101059.08
2019-06-10T02:33:55.582Z,101066.25
2019-06-10T02:36:31.221Z,101056.23
2019-06-10T02:38:56.033Z,101056.94
2019-06-10T02:41:31.979Z,101048.25
2019-06-10T02:43:57.547Z,101039.37
2019-06-10T02:46:31.226Z,101034.57
2019-06-10T02:49:17.680Z,101034.38
2019-06-10T02:51:31.431Z,101029.94
2019-06-10T02:54:04.423Z,101024.83
2019-06-10T02:56:36.371Z,101023.41
2019-06-10T02:59:03.883Z,101018.12
2019-06-10T03:01:38.157Z,101017.28
2019-06-10T03:04:06.004Z,101012.62
2019-06-10T03:06:40.015Z,101012.62
2019-06-10T03:09:07.134Z,101017.41
2019-06-10T03:11:37.417Z,101025.58
2019-06-10T03:14:07.006Z,101027.82
2019-06-10T03:16:39.131Z,101022.67
2019-06-10T03:19:08.807Z,101011.59
2019-06-10T03:21:39.139Z,101005.13
2019-06-10T03:24:08.868Z,100996.45
2019-06-10T03:26:38.575Z,100994.92
2019-06-10T03:29:07.947Z,100985.07
2019-06-10T03:31:43.184Z,100982.13
2019-06-10T03:34:08.890Z,100982.81
2019-06-10T03:36:38.787Z,100982.09
2019-06-10T03:39:09.318Z,100983.63
2019-06-10T03:41:38.928Z,100986.34
2019-06-10T03:44:08.583Z,100987.71
2019-06-10T03:46:38.200Z,100987.36
2019-06-10T03:49:07.847Z,100968.23
2019-06-10T03:51:37.213Z,100970.13
2019-06-10T03:54:06.875Z,100970.25
2019-06-10T03:56:36.532Z,100973.14
2019-06-10T03:59:06.153Z,100976.03
2019-06-10T04:01:35.832Z,100977.88
2019-06-10T04:04:05.793Z,100977.39
2019-06-10T04:06:35.174Z,100982.67
2019-06-10T04:09:06.402Z,100979.95
2019-06-10T04:11:35.802Z,100978.94
2019-06-10T04:14:05.855Z,100980.48
2019-06-10T04:16:35.505Z,100968.23
2019-06-10T04:19:05.247Z,100964.67
2019-06-10T04:21:34.887Z,100965.16
2019-06-10T04:24:04.463Z,100962.09
2019-06-10T04:26:34.144Z,100962.09
2019-06-10T04:29:04.298Z,100963.97
2019-06-10T04:31:33.912Z,100966.52
2019-06-10T04:34:04.257Z,100969.11
2019-06-10T04:36:33.912Z,100969.66
2019-06-10T04:39:06.214Z,100968.13
2019-06-10T04:41:35.869Z,100961.16
2019-06-10T04:44:05.261Z,100954.35
2019-06-10T04:46:35.184Z,100963.04
2019-06-10T04:49:04.571Z,100955.58
2019-06-10T04:51:34.043Z,100958.14
2019-06-10T04:54:04.736Z,100953.70
2019-06-10T04:56:34.341Z,100950.98
2019-06-10T04:59:04.605Z,100947.91
2019-06-10T05:01:33.975Z,100948.55
2019-06-10T05:04:04.310Z,100953.16
2019-06-10T05:06:34.225Z,100947.88
2019-06-10T05:09:05.195Z,100937.34
2019-06-10T05:11:34.866Z,100941.75
2019-06-10T05:14:04.487Z,100933.09
2019-06-10T05:16:35.918Z,100935.98
2019-06-10T05:19:06.105Z,100928.47
2019-06-10T05:21:35.493Z,100932.39
2019-06-10T05:24:05.167Z,100932.22
2019-06-10T05:26:34.780Z,100934.45
2019-06-10T05:29:04.777Z,100930.86
2019-06-10T05:31:35.070Z,100931.90
2019-06-10T05:34:04.701Z,100930.19
2019-06-10T05:36:34.687Z,100925.94
2019-06-10T05:39:06.989Z,100925.77
2019-06-10T05:41:36.357Z,100924.27
2019-06-10T05:44:06.073Z,100922.03
2019-06-10T05:46:35.446Z,100925.11
2019-06-10T05:49:06.317Z,100929.39
2019-06-10T05:51:35.684Z,100928.73
2019-06-10T05:54:05.406Z,100921.63
2019-06-10T05:56:35.714Z,100919.09
2019-06-10T05:59:05.382Z,100912.77
2019-06-10T06:01:38.266Z,100916.72
2019-06-10T06:04:06.635Z,100916.73
2019-06-10T06:06:37.499Z,100913.05
2019-06-10T06:09:08.167Z,100919.71
2019-06-10T06:11:37.829Z,100910.05
2019-06-10T06:14:07.410Z,100906.31
2019-06-10T06:16:38.287Z,100911.11
2019-06-10T06:19:08.245Z,100913.23
2019-06-10T06:21:42.765Z,100906.16
2019-06-10T06:24:08.694Z,100910.66
2019-06-10T06:26:39.746Z,100910.54
2019-06-10T06:29:13.051Z,100900.52
2019-06-10T06:31:42.997Z,100904.66
2019-06-10T06:34:13.827Z,100907.59
2019-06-10T06:36:43.782Z,100910.84
2019-06-10T06:39:13.439Z,100911.20
2019-06-10T06:41:43.195Z,100912.35
2019-06-10T06:44:13.212Z,100907.73
2019-06-10T06:46:43.090Z,100904.66
2019-06-10T06:49:13.736Z,100901.66
2019-06-10T06:51:54.778Z,100901.87
2019-06-10T06:54:14.358Z,100895.30
2019-06-10T06:56:44.007Z,100887.81
2019-06-10T06:59:13.676Z,100889.08
2019-06-10T07:01:44.482Z,100885.19
2019-06-10T07:04:14.467Z,100881.31
2019-06-10T07:06:44.153Z,100881.31
2019-06-10T07:09:13.905Z,100888.34
2019-06-10T07:11:45.450Z,100884.42
2019-06-10T07:14:15.230Z,100879.46
2019-06-10T07:16:46.554Z,100879.46
2019-06-10T07:19:17.155Z,100881.82
2019-06-10T07:22:05.311Z,100879.41
2019-06-10T07:24:18.614Z,100877.65
2019-06-10T07:26:53.965Z,100886.20
2019-06-10T07:29:19.635Z,100890.63
2019-06-10T07:31:51.032Z,100883.59
2019-06-10T07:34:22.248Z,100880.30
2019-06-10T07:36:52.213Z,100883.14
2019-06-10T07:39:22.724Z,100875.33
2019-06-10T07:41:53.036Z,100871.98
2019-06-10T07:44:22.790Z,100868.14
2019-06-10T07:46:53.002Z,100864.41
2019-06-10T07:49:23.884Z,100863.59
2019-06-10T07:51:53.770Z,100869.80
2019-06-10T07:54:23.397Z,100877.73
2019-06-10T07:56:53.661Z,100873.76
2019-06-10T07:59:23.481Z,100873.50
2019-06-10T08:01:55.203Z,100872.08
2019-06-10T08:04:24.173Z,100863.38
2019-06-10T08:13:35.195Z,100860.14
2019-06-10T08:16:05.047Z,100848.95
2019-06-10T08:18:44.748Z,100841.05
2019-06-10T08:21:06.043Z,100839.55
2019-06-10T08:23:36.889Z,100834.18
2019-06-10T08:26:06.747Z,100826.47
2019-06-10T08:28:37.552Z,100828.05
2019-06-10T08:31:07.137Z,100830.16
2019-06-10T08:33:36.956Z,100829.45
2019-06-10T08:36:06.913Z,100832.98
2019-06-10T08:38:36.498Z,100839.47
2019-06-10T08:41:05.897Z,100831.57
2019-06-10T08:43:36.439Z,100833.33
2019-06-10T08:46:06.842Z,100836.17
2019-06-10T08:48:37.001Z,100833.96
2019-06-10T08:51:06.689Z,100831.59
2019-06-10T08:53:37.302Z,100833.73
2019-06-10T08:56:07.187Z,100833.72
2019-06-10T08:58:38.452Z,100838.14
2019-06-10T09:01:07.770Z,100833.63
2019-06-10T09:03:39.869Z,100833.17
2019-06-10T09:06:09.070Z,100827.77
2019-06-10T09:08:40.838Z,100821.95
2019-06-10T09:11:09.803Z,100810.52
2019-06-10T09:13:40.774Z,100803.37
2019-06-10T09:16:18.283Z,100805.78
2019-06-10T09:18:47.352Z,100804.55
2019-06-10T09:21:13.042Z,100798.38
2019-06-10T09:23:47.105Z,100802.34
2019-06-10T09:26:14.061Z,100804.67
2019-06-10T09:28:48.705Z,100804.67
2019-06-10T09:31:14.645Z,100810.48
2019-06-10T09:33:49.942Z,100805.28
2019-06-10T09:36:15.618Z,100808.12
2019-06-10T09:38:47.329Z,100808.38
2019-06-10T09:41:16.340Z,100802.58
2019-06-10T09:43:50.318Z,100802.58
2019-06-10T09:46:16.869Z,100791.91
2019-06-10T09:48:50.357Z,100793.50
2019-06-10T09:51:18.683Z,100794.23
2019-06-10T09:53:58.277Z,100785.70
2019-06-10T09:56:20.092Z,100782.49
2019-06-10T09:58:51.253Z,100782.39
2019-06-10T10:01:23.850Z,100773.66
2019-06-10T10:03:59.322Z,100786.09
2019-06-10T10:06:24.175Z,100785.11
2019-06-10T10:08:58.067Z,100785.93
2019-06-10T10:11:28.302Z,100773.68
2019-06-10T10:13:56.001Z,100776.11
2019-06-10T10:16:25.928Z,100770.06
2019-06-10T10:19:00.141Z,100766.34
2019-06-10T10:21:26.705Z,100772.69
2019-06-10T10:24:06.769Z,100762.60
2019-06-10T10:26:27.381Z,100749.14
2019-06-10T10:28:57.717Z,100753.02
2019-06-10T10:31:27.104Z,100749.80
2019-06-10T10:33:56.686Z,100748.86
2019-06-10T10:36:26.047Z,100739.16
2019-06-10T10:38:56.402Z,100740.62
2019-06-10T10:41:25.764Z,100742.45
2019-06-10T10:43:57.763Z,100748.69
2019-06-10T10:46:26.652Z,100734.88
2019-06-10T10:48:56.570Z,100733.84
2019-06-10T10:51:25.978Z,100741.70
2019-06-10T10:54:18.726Z,100747.78
2019-06-10T10:56:27.807Z,100747.73
2019-06-10T10:58:58.547Z,100741.77
2019-06-10T11:01:28.379Z,100740.24
2019-06-10T11:03:59.176Z,100731.23
2019-06-10T11:06:28.733Z,100731.52
2019-06-10T11:08:58.125Z,100717.87
2019-06-10T11:11:28.134Z,100722.95
2019-06-10T11:13:59.745Z,100709.77
2019-06-10T11:16:29.113Z,100703.70
2019-06-10T11:18:58.791Z,100694.02
2019-06-10T11:21:28.150Z,100691.42
2019-06-10T11:24:01.522Z,100700.26
2019-06-10T11:26:29.209Z,100698.72
2019-06-10T11:28:59.097Z,100704.52
2019-06-10T11:31:28.754Z,100702.44
2019-06-10T11:33:59.201Z,100709.86
2019-06-10T11:36:29.012Z,100718.55
2019-06-10T11:38:59.227Z,100715.13
2019-06-10T11:41:28.874Z,100720.98
2019-06-10T11:43:59.393Z,100715.55
2019-06-10T11:46:28.852Z,100707.33
2019-06-10T11:48:59.088Z,100707.53
2019-06-10T11:51:28.802Z,100707.44
2019-06-10T11:53:58.977Z,100696.84
2019-06-10T11:56:28.613Z,100685.14
2019-06-10T11:58:59.246Z,100684.48
2019-06-10T12:01:29.067Z,100682.62
2019-06-10T12:04:00.441Z,100672.62
2019-06-10T12:06:30.084Z,100670.91
2019-06-10T12:09:02.852Z,100674.34
2019-06-10T12:11:34.307Z,100675.91
2019-06-10T12:14:04.981Z,100668.56
2019-06-10T12:19:05.504Z,100660.36
2019-06-10T12:21:34.865Z,100652.88
2019-06-10T12:24:05.286Z,100646.70
2019-06-10T12:26:34.970Z,100642.47
2019-06-10T12:29:06.048Z,100645.02
2019-06-10T12:31:37.367Z,100641.95
2019-06-10T12:34:07.302Z,100637.77
2019-06-10T12:36:37.140Z,100631.21
2019-06-10T12:39:11.207Z,100627.73
2019-06-10T12:41:42.932Z,100623.90
2019-06-10T12:44:13.244Z,100627.79
2019-06-10T12:46:43.457Z,100616.36
2019-06-10T12:49:16.703Z,100613.25
2019-06-10T12:51:44.114Z,100615.81
2019-06-10T12:54:13.734Z,100610.98
2019-06-10T12:56:43.400Z,100613.98
2019-06-10T12:59:13.723Z,100612.38
2019-06-10T13:01:44.850Z,100605.59
2019-06-10T13:04:14.474Z,100603.76
2019-06-10T13:06:44.689Z,100606.11
2019-06-10T13:09:14.371Z,100609.16
2019-06-10T13:11:44.073Z,100613.08
2019-06-10T13:14:13.446Z,100604.03
2019-06-10T13:16:43.421Z,100598.34
2019-06-10T13:19:13.459Z,100586.27
2019-06-10T13:21:42.995Z,100597.70
2019-06-10T13:24:13.982Z,100592.70
2019-06-10T13:26:43.595Z,100597.55
2019-06-10T13:29:17.369Z,100599.48
2019-06-10T13:31:44.320Z,100591.89
2019-06-10T13:34:14.822Z,100587.57
2019-06-10T13:36:45.263Z,100582.11
2019-06-10T13:39:15.480Z,100578.48
2019-06-10T13:41:45.381Z,100574.70
2019-06-10T13:44:16.477Z,100571.17
2019-06-10T13:46:46.207Z,100560.88
2019-06-10T13:49:15.660Z,100569.22
2019-06-10T13:51:45.057Z,100564.69
2019-06-10T13:54:14.700Z,100562.84
2019-06-10T13:56:47.579Z,100561.95
2019-06-10T13:59:15.277Z,100556.10
2019-06-10T14:01:45.083Z,100555.52
2019-06-10T14:04:21.541Z,100551.36
2019-06-10T14:06:50.349Z,100547.59
2019-06-10T14:09:17.444Z,100540.30
2019-06-10T14:11:47.105Z,100543.55
2019-06-10T14:14:18.214Z,100545.30
2019-06-10T14:16:47.720Z,100545.30
2019-06-10T14:19:17.663Z,100539.16
2019-06-10T14:21:47.354Z,100535.91
2019-06-10T14:24:17.564Z,100534.86
2019-06-10T14:26:47.485Z,100530.50
2019-06-10T14:29:17.177Z,100529.52
2019-06-10T14:31:47.829Z,100525.58
2019-06-10T14:34:18.913Z,100529.04
2019-06-10T14:36:48.362Z,100531.16
2019-06-10T14:39:18.319Z,100539.45
2019-06-10T14:41:47.677Z,100527.63
2019-06-10T14:44:18.085Z,100532.16
2019-06-10T14:46:47.433Z,100530.59
2019-06-10T14:49:17.078Z,100530.61
2019-06-10T14:51:46.694Z,100523.73
2019-06-10T14:54:18.345Z,100534.02
2019-06-10T14:56:53.738Z,100531.74
2019-06-10T14:59:18.559Z,100535.72
2019-06-10T15:01:48.324Z,100539.97
2019-06-10T15:04:18.354Z,100532.95
2019-06-10T15:06:49.229Z,100540.19
2019-06-10T15:09:19.828Z,100536.67
2019-06-10T15:11:49.325Z,100540.33
2019-06-10T15:14:18.684Z,100538.52
2019-06-10T15:16:48.295Z,100530.34
2019-06-10T15:19:24.787Z,100531.61
2019-06-10T15:21:49.010Z,100528.84
2019-06-10T15:24:18.673Z,100514.31
2019-06-10T15:26:48.604Z,100514.89
2019-06-10T15:29:18.947Z,100511.42
2019-06-10T15:32:05.971Z,100507.81
2019-06-10T15:34:21.535Z,100503.35
2019-06-10T15:36:52.720Z,100497.89
2019-06-10T15:39:24.102Z,100495.23
2019-06-10T15:41:53.733Z,100493.54
2019-06-10T15:44:44.719Z,100499.38
2019-06-10T15:46:54.508Z,100499.77
2019-06-10T15:49:25.973Z,100494.07
2019-06-10T15:51:55.228Z,100505.07
2019-06-10T15:54:25.479Z,100497.54
2019-06-10T15:56:56.703Z,100493.70
2019-06-10T15:59:26.430Z,100494.01
2019-06-10T16:01:56.063Z,100494.07
2019-06-10T16:04:29.529Z,100491.30
2019-06-10T16:06:56.488Z,100484.99
2019-06-10T16:09:26.118Z,100481.91
2019-06-10T16:11:55.504Z,100479.78
2019-06-10T16:14:25.453Z,100479.53
2019-06-10T16:16:54.910Z,100476.71
2019-06-10T16:19:24.422Z,100472.09
2019-06-10T16:21:53.786Z,100467.27
2019-06-10T16:24:27.371Z,100466.89
2019-06-10T16:26:55.680Z,100459.67
2019-06-10T16:29:26.755Z,100461.30
2019-06-10T16:31:56.650Z,100459.27
2019-06-10T16:34:28.857Z,100453.45
2019-06-10T16:36:57.680Z,100457.36
2019-06-10T16:39:29.060Z,100462.42
2019-06-10T16:41:58.559Z,100459.40
2019-06-10T16:44:28.337Z,100449.81
2019-06-10T16:46:57.743Z,100454.02
2019-06-10T16:49:27.408Z,100456.88
2019-06-10T16:51:56.755Z,100448.00
2019-06-10T16:54:27.116Z,100450.06
2019-06-10T16:56:56.578Z,100460.53
2019-06-10T16:59:27.529Z,100464.13
2019-06-10T17:01:57.011Z,100478.58
2019-06-10T17:04:27.725Z,100498.47
2019-06-10T17:06:57.759Z,100506.80
2019-06-10T17:09:27.896Z,100523.73
2019-06-10T17:11:58.631Z,100548.29
2019-06-10T17:14:28.462Z,100537.35
2019-06-10T17:16:57.844Z,100528.63
2019-06-10T17:19:30.186Z,100521.76
2019-06-10T17:21:59.650Z,100527.89
2019-06-10T17:24:30.573Z,100524.20
2019-06-10T17:27:02.459Z,100520.47
2019-06-10T17:29:33.271Z,100520.59
2019-06-10T17:38:32.752Z,100498.32
2019-06-10T17:41:03.053Z,100485.80
2019-06-10T17:43:34.145Z,100480.98
2019-06-10T17:46:04.051Z,100484.28
2019-06-10T17:48:33.946Z,100475.04
2019-06-10T17:51:03.821Z,100475.98
2019-06-10T17:53:35.029Z,100476.20
2019-06-10T17:56:05.926Z,100468.45
2019-06-10T17:58:50.163Z,100465.98
2019-06-10T18:01:06.936Z,100466.41
2019-06-10T18:03:39.764Z,100468.51
2019-06-10T18:06:08.143Z,100477.91
2019-06-10T18:08:40.586Z,100477.69
2019-06-10T18:11:09.108Z,100469.02
2019-06-10T18:13:38.699Z,100465.65
2019-06-10T18:16:08.054Z,100461.09
2019-06-10T18:18:37.884Z,100459.41
2019-06-10T18:21:08.215Z,100453.68
2019-06-10T18:23:37.885Z,100452.30
2019-06-10T18:26:07.879Z,100440.72
2019-06-10T18:28:59.778Z,100445.48
2019-06-10T18:31:08.852Z,100439.02
2019-06-10T18:33:38.522Z,100432.36
2019-06-10T18:36:07.947Z,100427.37
2019-06-10T18:38:37.695Z,100435.11
2019-06-10T18:41:07.600Z,100438.14
2019-06-10T18:43:37.019Z,100436.59
2019-06-10T18:46:06.624Z,100438.55
2019-06-10T18:48:38.077Z,100444.75
2019-06-10T18:51:07.300Z,100451.83
2019-06-10T18:53:36.678Z,100455.78
2019-06-10T18:56:06.056Z,100452.35
2019-06-10T18:58:37.831Z,100460.08
2019-06-10T19:01:08.302Z,100460.23
2019-06-10T19:03:38.284Z,100461.21
2019-06-10T19:06:09.015Z,100465.50
2019-06-10T19:08:39.298Z,100462.17
2019-06-10T19:11:10.116Z,100474.04
2019-06-10T19:13:43.320Z,100465.69
2019-06-10T19:16:12.968Z,100461.52
2019-06-10T19:18:44.290Z,100462.70
2019-06-10T19:21:13.667Z,100465.42
2019-06-10T19:23:44.127Z,100462.08
2019-06-10T19:26:14.465Z,100459.89
2019-06-10T19:28:45.257Z,100480.54
2019-06-10T19:31:16.318Z,100501.81
2019-06-10T19:33:46.560Z,100485.33
2019-06-10T19:36:15.928Z,100473.50
2019-06-10T19:38:45.297Z,100490.70
2019-06-10T19:41:14.935Z,100478.45
2019-06-10T19:43:45.510Z,100469.62
2019-06-10T19:46:15.340Z,100466.83
2019-06-10T19:48:56.781Z,100470.84
2019-06-10T19:51:16.388Z,100469.12
2019-06-10T19:53:46.035Z,100465.29
2019-06-10T19:56:15.448Z,100458.46
2019-06-10T19:58:46.515Z,100464.14
2019-06-10T20:01:16.044Z,100460.47
2019-06-10T20:03:47.080Z,100459.75
2019-06-10T20:06:16.573Z,100477.80
2019-06-10T20:08:46.297Z,100488.05
2019-06-10T20:11:15.689Z,100479.45
2019-06-10T20:13:46.762Z,100479.38
2019-06-10T20:16:16.559Z,100470.63
2019-06-10T20:18:48.220Z,100474.59
2019-06-10T20:21:17.017Z,100472.45
2019-06-10T20:23:47.697Z,100483.70
2019-06-10T20:26:17.280Z,100485.22
2019-06-10T20:28:51.332Z,100479.50
2019-06-10T20:31:17.766Z,100467.80
2019-06-10T20:33:47.158Z,100484.57
2019-06-10T20:36:22.494Z,100492.62
2019-06-10T20:38:49.080Z,100487.66
2019-06-10T20:41:19.719Z,100492.70
2019-06-10T20:43:49.720Z,100483.12
2019-06-10T20:46:23.316Z,100483.82
2019-06-10T20:48:54.500Z,100484.25
2019-06-10T20:51:26.884Z,100486.34
2019-06-10T20:53:54.503Z,100469.73
2019-06-10T20:56:23.921Z,100475.67
2019-06-10T20:58:53.529Z,100482.52
2019-06-10T21:01:25.135Z,100473.55
2019-06-10T21:03:54.458Z,100478.80
2019-06-10T21:06:24.590Z,100479.88
2019-06-10T21:08:54.834Z,100485.73
2019-06-10T21:11:24.585Z,100489.47
2019-06-10T21:13:55.871Z,100489.47
2019-06-10T21:16:25.676Z,100494.25
2019-06-10T21:18:55.859Z,100487.07
2019-06-10T21:21:26.637Z,100493.08
2019-06-10T21:23:56.385Z,100495.42
2019-06-10T21:26:26.084Z,100496.28
2019-06-10T21:28:55.585Z,100492.18
2019-06-10T21:31:25.061Z,100493.58
2019-06-10T21:33:55.659Z,100499.62
2019-06-10T21:36:25.653Z,100506.38
2019-06-10T21:38:56.006Z,100510.77
2019-06-10T21:41:25.786Z,100510.66
2019-06-10T21:43:59.244Z,100504.25
2019-06-10T21:46:27.296Z,100503.83
2019-06-10T21:48:56.725Z,100502.88
2019-06-10T21:51:26.577Z,100496.62
2019-06-10T21:53:56.016Z,100497.72
2019-06-10T21:56:25.813Z,100487.17
2019-06-10T21:58:55.759Z,100487.17
2019-06-10T22:01:25.598Z,100493.82
2019-06-10T22:04:00.742Z,100495.52
2019-06-10T22:06:26.404Z,100506.11
2019-06-10T22:08:56.734Z,100499.47
2019-06-10T22:11:26.745Z,100499.62
2019-06-10T22:13:56.463Z,100493.88
2019-06-10T22:16:25.946Z,100477.13
2019-06-10T22:18:55.680Z,100470.09
2019-06-10T22:21:25.376Z,100471.94
2019-06-10T22:23:56.717Z,100463.23
2019-06-10T22:26:26.530Z,100462.70
2019-06-10T22:28:57.680Z,100465.44
2019-06-10T22:31:27.450Z,100467.34
2019-06-10T22:33:57.674Z,100459.83
2019-06-10T22:36:27.172Z,100463.59
2019-06-10T22:38:58.980Z,100466.72
2019-06-10T22:41:28.093Z,100473.08
2019-06-10T22:43:57.746Z,100467.44
2019-06-10T22:46:27.225Z,100470.23
2019-06-10T22:48:57.242Z,100482.55
2019-06-10T22:51:27.268Z,100483.52
2019-06-10T22:53:58.586Z,100477.44
2019-06-10T22:56:29.288Z,100486.04
2019-06-10T22:59:00.265Z,100495.13
2019-06-10T23:01:37.027Z,100498.58
2019-06-10T23:04:03.795Z,100498.59
2019-06-10T23:06:34.013Z,100503.04
2019-06-10T23:09:05.063Z,100498.64
2019-06-10T23:11:34.633Z,100492.02
2019-06-10T23:14:04.308Z,100492.04
2019-06-10T23:16:33.775Z,100484.43
2019-06-10T23:19:03.162Z,100488.61
2019-06-10T23:21:32.750Z,100483.54
2019-06-10T23:24:03.228Z,100483.20
2019-06-10T23:26:33.269Z,100484.71
2019-06-10T23:29:03.465Z,100482.13
2019-06-10T23:31:48.336Z,100486.38
2019-06-10T23:34:05.049Z,100493.73
2019-06-10T23:36:34.999Z,100487.94
2019-06-10T23:39:05.957Z,100486.04
2019-06-10T23:41:35.734Z,100485.55
2019-06-10T23:44:05.140Z,100488.28
2019-06-10T23:46:36.026Z,100500.19
2019-06-10T23:49:05.724Z,100494.23
2019-06-10T23:51:35.395Z,100505.30
2019-06-10T23:54:06.289Z,100498.47
2019-06-10T23:56:35.856Z,100491.64
2019-06-10T23:59:05.246Z,100486.38
